sensor_id;sensor_type;location;lat;lon;timestamp;temperature;humidity
21419;DHT22;10870;51.384;10.316;2022-11-20T00:01:55;-3.50;99.90
21419;DHT22;10870;51.384;10.316;2022-11-20T00:03:57;-3.50;99.90
21419;DHT22;10870;51.384;10.316;2022-11-20T00:06:05;-3.50;99.90
21419;DHT22;10870;51.384;10.316;2022-11-20T00:08:07;-3.50;99.90
21419;DHT22;10870;51.384;10.316;2022-11-20T00:10:08;-3.50;99.90
21419;DHT22;10870;51.384;10.316;2022-11-20T00:12:09;-3.50;99.90
21419;DHT22;10870;51.384;10.316;2022-11-20T00:14:10;-3.50;99.90
21419;DHT22;10870;51.384;10.316;2022-11-20T00:16:16;-3.50;99.90
21419;DHT22;10870;51.384;10.316;2022-11-20T00:18:17;-3.50;99.90
21419;DHT22;10870;51.384;10.316;2022-11-20T00:20:18;-3.60;99.90
21419;DHT22;10870;51.384;10.316;2022-11-20T00:22:19;-3.70;99.90
21419;DHT22;10870;51.384;10.316;2022-11-20T00:24:20;-3.70;99.90
21419;DHT22;10870;51.384;10.316;2022-11-20T00:26:23;-3.80;99.90
21419;DHT22;10870;51.384;10.316;2022-11-20T00:40:35;-4.30;99.90
21419;DHT22;10870;51.384;10.316;2022-11-20T00:42:36;-4.40;99.90
21419;DHT22;10870;51.384;10.316;2022-11-20T00:44:37;-4.40;99.90
21419;DHT22;10870;51.384;10.316;2022-11-20T00:46:38;-4.50;99.90
21419;DHT22;10870;51.384;10.316;2022-11-20T00:48:39;-4.50;99.90
21419;DHT22;10870;51.384;10.316;2022-11-20T00:50:41;-4.50;99.90
21419;DHT22;10870;51.384;10.316;2022-11-20T00:52:42;-4.50;99.90
21419;DHT22;10870;51.384;10.316;2022-11-20T00:54:43;-4.40;99.90
21419;DHT22;10870;51.384;10.316;2022-11-20T00:56:44;-4.50;99.90
21419;DHT22;10870;51.384;10.316;2022-11-20T00:58:46;-4.40;99.90
21419;DHT22;10870;51.384;10.316;2022-11-20T01:00:47;-4.40;99.90
21419;DHT22;10870;51.384;10.316;2022-11-20T01:02:50;-4.30;99.90
21419;DHT22;10870;51.384;10.316;2022-11-20T01:04:51;-4.30;99.90
21419;DHT22;10870;51.384;10.316;2022-11-20T01:06:52;-4.40;99.90
21419;DHT22;10870;51.384;10.316;2022-11-20T01:08:55;-4.50;99.90
21419;DHT22;10870;51.384;10.316;2022-11-20T01:11:01;-4.40;99.90
21419;DHT22;10870;51.384;10.316;2022-11-20T01:13:03;-4.50;99.90
21419;DHT22;10870;51.384;10.316;2022-11-20T01:15:22;-4.50;99.90
21419;DHT22;10870;51.384;10.316;2022-11-20T01:17:23;-4.50;99.90
21419;DHT22;10870;51.384;10.316;2022-11-20T01:19:24;-4.60;99.90
21419;DHT22;10870;51.384;10.316;2022-11-20T01:21:28;-4.50;99.90
21419;DHT22;10870;51.384;10.316;2022-11-20T01:23:33;-4.40;99.90
21419;DHT22;10870;51.384;10.316;2022-11-20T01:25:35;-4.40;99.90
21419;DHT22;10870;51.384;10.316;2022-11-20T01:27:36;-4.40;99.90
21419;DHT22;10870;51.384;10.316;2022-11-20T01:29:37;-4.30;99.90
21419;DHT22;10870;51.384;10.316;2022-11-20T01:31:38;-4.30;99.90
21419;DHT22;10870;51.384;10.316;2022-11-20T01:33:39;-4.30;99.90
21419;DHT22;10870;51.384;10.316;2022-11-20T01:35:41;-4.30;99.90
21419;DHT22;10870;51.384;10.316;2022-11-20T01:37:42;-4.30;99.90
21419;DHT22;10870;51.384;10.316;2022-11-20T01:39:43;-4.20;99.90
21419;DHT22;10870;51.384;10.316;2022-11-20T01:41:45;-4.30;99.90
21419;DHT22;10870;51.384;10.316;2022-11-20T01:44:05;-4.20;99.90
21419;DHT22;10870;51.384;10.316;2022-11-20T01:46:13;-4.20;99.90
21419;DHT22;10870;51.384;10.316;2022-11-20T01:48:15;-4.20;99.90
21419;DHT22;10870;51.384;10.316;2022-11-20T01:50:26;-4.20;99.90
21419;DHT22;10870;51.384;10.316;2022-11-20T01:52:42;-4.20;99.90
21419;DHT22;10870;51.384;10.316;2022-11-20T01:57:18;-4.30;99.90
21419;DHT22;10870;51.384;10.316;2022-11-20T01:59:20;-4.30;99.90
21419;DHT22;10870;51.384;10.316;2022-11-20T02:01:24;-4.30;99.90
21419;DHT22;10870;51.384;10.316;2022-11-20T02:03:26;-4.30;99.90
21419;DHT22;10870;51.384;10.316;2022-11-20T02:05:36;-4.40;99.90
21419;DHT22;10870;51.384;10.316;2022-11-20T02:07:39;-4.40;99.90
21419;DHT22;10870;51.384;10.316;2022-11-20T02:09:40;-4.40;99.90
21419;DHT22;10870;51.384;10.316;2022-11-20T02:11:41;-4.30;99.90
21419;DHT22;10870;51.384;10.316;2022-11-20T02:13:43;-4.30;99.90
21419;DHT22;10870;51.384;10.316;2022-11-20T02:15:44;-4.30;99.90
21419;DHT22;10870;51.384;10.316;2022-11-20T02:17:45;-4.30;99.90
21419;DHT22;10870;51.384;10.316;2022-11-20T02:19:46;-4.30;99.90
21419;DHT22;10870;51.384;10.316;2022-11-20T02:22:12;-4.30;99.90
21419;DHT22;10870;51.384;10.316;2022-11-20T02:24:16;-4.30;99.90
21419;DHT22;10870;51.384;10.316;2022-11-20T02:26:20;-4.30;99.90
21419;DHT22;10870;51.384;10.316;2022-11-20T02:28:22;-4.30;99.90
21419;DHT22;10870;51.384;10.316;2022-11-20T02:30:23;-4.30;99.90
21419;DHT22;10870;51.384;10.316;2022-11-20T02:32:33;-4.30;99.90
21419;DHT22;10870;51.384;10.316;2022-11-20T02:34:34;-4.30;99.90
21419;DHT22;10870;51.384;10.316;2022-11-20T02:36:36;-4.30;99.90
21419;DHT22;10870;51.384;10.316;2022-11-20T02:38:40;-4.40;99.90
21419;DHT22;10870;51.384;10.316;2022-11-20T02:40:42;-4.40;99.90
21419;DHT22;10870;51.384;10.316;2022-11-20T02:42:43;-4.60;99.90
21419;DHT22;10870;51.384;10.316;2022-11-20T02:44:44;-4.60;99.90
21419;DHT22;10870;51.384;10.316;2022-11-20T02:46:45;-4.60;99.90
21419;DHT22;10870;51.384;10.316;2022-11-20T02:48:46;-4.60;99.90
21419;DHT22;10870;51.384;10.316;2022-11-20T02:50:47;-4.60;99.90
21419;DHT22;10870;51.384;10.316;2022-11-20T02:52:48;-4.60;99.90
21419;DHT22;10870;51.384;10.316;2022-11-20T02:54:49;-4.60;99.90
21419;DHT22;10870;51.384;10.316;2022-11-20T02:56:50;-4.60;99.90
21419;DHT22;10870;51.384;10.316;2022-11-20T02:58:50;-4.60;99.90
21419;DHT22;10870;51.384;10.316;2022-11-20T03:00:52;-4.60;99.90
21419;DHT22;10870;51.384;10.316;2022-11-20T03:02:53;-4.60;99.90
21419;DHT22;10870;51.384;10.316;2022-11-20T03:04:54;-4.60;99.90
21419;DHT22;10870;51.384;10.316;2022-11-20T03:06:55;-4.60;99.90
21419;DHT22;10870;51.384;10.316;2022-11-20T03:08:56;-4.50;99.90
21419;DHT22;10870;51.384;10.316;2022-11-20T03:11:01;-4.60;99.90
21419;DHT22;10870;51.384;10.316;2022-11-20T03:13:02;-4.60;99.90
21419;DHT22;10870;51.384;10.316;2022-11-20T03:15:03;-4.60;99.90
21419;DHT22;10870;51.384;10.316;2022-11-20T03:17:04;-4.60;99.90
21419;DHT22;10870;51.384;10.316;2022-11-20T03:19:06;-4.70;99.90
21419;DHT22;10870;51.384;10.316;2022-11-20T03:21:07;-4.70;99.90
21419;DHT22;10870;51.384;10.316;2022-11-20T03:23:09;-4.60;99.90
21419;DHT22;10870;51.384;10.316;2022-11-20T03:25:09;-4.60;99.90
21419;DHT22;10870;51.384;10.316;2022-11-20T03:27:10;-4.60;99.90
21419;DHT22;10870;51.384;10.316;2022-11-20T03:29:11;-4.70;99.90
21419;DHT22;10870;51.384;10.316;2022-11-20T03:31:14;-4.70;99.90
21419;DHT22;10870;51.384;10.316;2022-11-20T03:33:15;-4.70;99.90
21419;DHT22;10870;51.384;10.316;2022-11-20T03:35:16;-4.70;99.90
21419;DHT22;10870;51.384;10.316;2022-11-20T03:37:17;-4.70;99.90
21419;DHT22;10870;51.384;10.316;2022-11-20T03:39:18;-4.70;99.90
21419;DHT22;10870;51.384;10.316;2022-11-20T03:41:21;-4.70;99.90
21419;DHT22;10870;51.384;10.316;2022-11-20T03:43:23;-4.70;99.90
21419;DHT22;10870;51.384;10.316;2022-11-20T03:45:23;-4.70;99.90
21419;DHT22;10870;51.384;10.316;2022-11-20T03:47:25;-4.70;99.90
21419;DHT22;10870;51.384;10.316;2022-11-20T03:49:25;-4.70;99.90
21419;DHT22;10870;51.384;10.316;2022-11-20T03:51:29;-4.70;99.90
21419;DHT22;10870;51.384;10.316;2022-11-20T03:53:30;-4.70;99.90
21419;DHT22;10870;51.384;10.316;2022-11-20T03:55:31;-4.70;99.90
21419;DHT22;10870;51.384;10.316;2022-11-20T03:57:32;-4.70;99.90
21419;DHT22;10870;51.384;10.316;2022-11-20T03:59:33;-4.70;99.90
21419;DHT22;10870;51.384;10.316;2022-11-20T04:01:35;-4.70;99.90
21419;DHT22;10870;51.384;10.316;2022-11-20T04:03:39;-4.70;99.90
21419;DHT22;10870;51.384;10.316;2022-11-20T04:05:40;-4.70;99.90
21419;DHT22;10870;51.384;10.316;2022-11-20T04:07:41;-4.70;99.90
21419;DHT22;10870;51.384;10.316;2022-11-20T04:09:42;-4.70;99.90
21419;DHT22;10870;51.384;10.316;2022-11-20T04:11:43;-4.80;99.90
21419;DHT22;10870;51.384;10.316;2022-11-20T04:15:57;-4.90;99.90
21419;DHT22;10870;51.384;10.316;2022-11-20T04:17:58;-5.00;99.90
21419;DHT22;10870;51.384;10.316;2022-11-20T04:19:59;-5.10;99.90
21419;DHT22;10870;51.384;10.316;2022-11-20T04:22:09;-5.20;99.90
21419;DHT22;10870;51.384;10.316;2022-11-20T04:24:12;-5.30;99.90
21419;DHT22;10870;51.384;10.316;2022-11-20T04:26:13;-5.30;99.90
21419;DHT22;10870;51.384;10.316;2022-11-20T04:28:14;-5.30;99.90
21419;DHT22;10870;51.384;10.316;2022-11-20T04:30:15;-5.30;99.90
21419;DHT22;10870;51.384;10.316;2022-11-20T04:32:16;-5.30;99.90
21419;DHT22;10870;51.384;10.316;2022-11-20T04:34:17;-5.20;99.90
21419;DHT22;10870;51.384;10.316;2022-11-20T04:36:22;-5.20;99.90
21419;DHT22;10870;51.384;10.316;2022-11-20T04:38:23;-5.20;99.90
21419;DHT22;10870;51.384;10.316;2022-11-20T04:40:25;-5.20;99.90
21419;DHT22;10870;51.384;10.316;2022-11-20T04:42:25;-5.10;99.90
21419;DHT22;10870;51.384;10.316;2022-11-20T04:44:30;-5.10;99.90
21419;DHT22;10870;51.384;10.316;2022-11-20T04:46:33;-5.10;99.90
21419;DHT22;10870;51.384;10.316;2022-11-20T04:48:35;-5.10;99.90
21419;DHT22;10870;51.384;10.316;2022-11-20T04:50:40;-5.10;99.90
21419;DHT22;10870;51.384;10.316;2022-11-20T04:52:41;-5.10;99.90
21419;DHT22;10870;51.384;10.316;2022-11-20T04:54:42;-5.10;99.90
21419;DHT22;10870;51.384;10.316;2022-11-20T04:56:42;-5.10;99.90
21419;DHT22;10870;51.384;10.316;2022-11-20T04:58:44;-5.20;99.90
21419;DHT22;10870;51.384;10.316;2022-11-20T05:00:45;-5.20;99.90
21419;DHT22;10870;51.384;10.316;2022-11-20T05:02:45;-5.10;99.90
21419;DHT22;10870;51.384;10.316;2022-11-20T05:04:47;-5.10;99.90
21419;DHT22;10870;51.384;10.316;2022-11-20T05:06:49;-5.10;99.90
21419;DHT22;10870;51.384;10.316;2022-11-20T05:08:50;-5.00;99.90
21419;DHT22;10870;51.384;10.316;2022-11-20T05:10:51;-5.00;99.90
21419;DHT22;10870;51.384;10.316;2022-11-20T05:12:52;-5.00;99.90
21419;DHT22;10870;51.384;10.316;2022-11-20T05:14:53;-5.00;99.90
21419;DHT22;10870;51.384;10.316;2022-11-20T05:16:54;-5.00;99.90
21419;DHT22;10870;51.384;10.316;2022-11-20T05:18:56;-5.00;99.90
21419;DHT22;10870;51.384;10.316;2022-11-20T05:20:58;-5.00;99.90
21419;DHT22;10870;51.384;10.316;2022-11-20T05:22:59;-5.00;99.90
21419;DHT22;10870;51.384;10.316;2022-11-20T05:25:00;-5.10;99.90
21419;DHT22;10870;51.384;10.316;2022-11-20T05:27:01;-5.20;99.90
21419;DHT22;10870;51.384;10.316;2022-11-20T05:29:02;-5.20;99.90
21419;DHT22;10870;51.384;10.316;2022-11-20T05:31:08;-5.10;99.90
21419;DHT22;10870;51.384;10.316;2022-11-20T05:33:09;-5.10;99.90
21419;DHT22;10870;51.384;10.316;2022-11-20T05:35:10;-5.10;99.90
21419;DHT22;10870;51.384;10.316;2022-11-20T05:37:11;-5.10;99.90
21419;DHT22;10870;51.384;10.316;2022-11-20T05:39:13;-5.10;99.90
21419;DHT22;10870;51.384;10.316;2022-11-20T05:41:16;-5.10;99.90
21419;DHT22;10870;51.384;10.316;2022-11-20T05:43:18;-5.10;99.90
21419;DHT22;10870;51.384;10.316;2022-11-20T05:45:19;-5.10;99.90
21419;DHT22;10870;51.384;10.316;2022-11-20T05:47:20;-5.10;99.90
21419;DHT22;10870;51.384;10.316;2022-11-20T05:49:21;-5.10;99.90
21419;DHT22;10870;51.384;10.316;2022-11-20T05:51:22;-5.10;99.90
21419;DHT22;10870;51.384;10.316;2022-11-20T05:53:24;-5.10;99.90
21419;DHT22;10870;51.384;10.316;2022-11-20T05:55:26;-5.10;99.90
21419;DHT22;10870;51.384;10.316;2022-11-20T05:57:27;-5.10;99.90
21419;DHT22;10870;51.384;10.316;2022-11-20T05:59:28;-5.10;99.90
21419;DHT22;10870;51.384;10.316;2022-11-20T06:01:29;-5.10;99.90
21419;DHT22;10870;51.384;10.316;2022-11-20T06:03:30;-5.10;99.90
21419;DHT22;10870;51.384;10.316;2022-11-20T06:05:33;-5.10;99.90
21419;DHT22;10870;51.384;10.316;2022-11-20T06:07:34;-5.10;99.90
21419;DHT22;10870;51.384;10.316;2022-11-20T06:09:35;-5.20;99.90
21419;DHT22;10870;51.384;10.316;2022-11-20T06:11:36;-5.30;99.90
21419;DHT22;10870;51.384;10.316;2022-11-20T06:13:37;-5.30;99.90
21419;DHT22;10870;51.384;10.316;2022-11-20T06:15:38;-5.30;99.90
21419;DHT22;10870;51.384;10.316;2022-11-20T06:17:39;-5.30;99.90
21419;DHT22;10870;51.384;10.316;2022-11-20T06:19:40;-5.20;99.90
21419;DHT22;10870;51.384;10.316;2022-11-20T06:21:41;-5.30;99.90
21419;DHT22;10870;51.384;10.316;2022-11-20T06:23:43;-5.30;99.90
21419;DHT22;10870;51.384;10.316;2022-11-20T06:25:44;-5.30;99.90
21419;DHT22;10870;51.384;10.316;2022-11-20T06:27:45;-5.30;99.90
21419;DHT22;10870;51.384;10.316;2022-11-20T06:29:46;-5.40;99.90
21419;DHT22;10870;51.384;10.316;2022-11-20T06:31:47;-5.30;99.90
21419;DHT22;10870;51.384;10.316;2022-11-20T06:33:48;-5.30;99.90
21419;DHT22;10870;51.384;10.316;2022-11-20T06:35:49;-5.30;99.90
21419;DHT22;10870;51.384;10.316;2022-11-20T06:37:51;-5.30;99.90
21419;DHT22;10870;51.384;10.316;2022-11-20T06:39:52;-5.30;99.90
21419;DHT22;10870;51.384;10.316;2022-11-20T06:41:52;-5.20;99.90
21419;DHT22;10870;51.384;10.316;2022-11-20T06:43:53;-5.20;99.90
21419;DHT22;10870;51.384;10.316;2022-11-20T06:45:56;-5.30;99.90
21419;DHT22;10870;51.384;10.316;2022-11-20T06:47:58;-5.20;99.90
21419;DHT22;10870;51.384;10.316;2022-11-20T06:49:59;-5.20;99.90
21419;DHT22;10870;51.384;10.316;2022-11-20T06:52:00;-5.20;99.90
21419;DHT22;10870;51.384;10.316;2022-11-20T06:54:03;-5.20;99.90
21419;DHT22;10870;51.384;10.316;2022-11-20T06:56:13;-5.20;99.90
21419;DHT22;10870;51.384;10.316;2022-11-20T06:58:15;-5.20;99.90
21419;DHT22;10870;51.384;10.316;2022-11-20T07:00:16;-5.20;99.90
21419;DHT22;10870;51.384;10.316;2022-11-20T07:02:18;-5.20;99.90
21419;DHT22;10870;51.384;10.316;2022-11-20T07:04:19;-5.30;99.90
21419;DHT22;10870;51.384;10.316;2022-11-20T07:06:20;-5.30;99.90
21419;DHT22;10870;51.384;10.316;2022-11-20T07:08:21;-5.30;99.90
21419;DHT22;10870;51.384;10.316;2022-11-20T07:10:22;-5.20;99.90
21419;DHT22;10870;51.384;10.316;2022-11-20T07:12:23;-5.30;99.90
21419;DHT22;10870;51.384;10.316;2022-11-20T07:14:24;-5.30;99.90
21419;DHT22;10870;51.384;10.316;2022-11-20T07:16:25;-5.30;99.90
21419;DHT22;10870;51.384;10.316;2022-11-20T07:18:26;-5.30;99.90
21419;DHT22;10870;51.384;10.316;2022-11-20T07:20:27;-5.30;99.90
21419;DHT22;10870;51.384;10.316;2022-11-20T07:22:28;-5.30;99.90
21419;DHT22;10870;51.384;10.316;2022-11-20T07:24:29;-5.30;99.90
21419;DHT22;10870;51.384;10.316;2022-11-20T07:26:30;-5.30;99.90
21419;DHT22;10870;51.384;10.316;2022-11-20T07:28:32;-5.30;99.90
21419;DHT22;10870;51.384;10.316;2022-11-20T07:30:33;-5.30;99.90
21419;DHT22;10870;51.384;10.316;2022-11-20T07:32:34;-5.20;99.90
21419;DHT22;10870;51.384;10.316;2022-11-20T07:34:35;-5.10;99.90
21419;DHT22;10870;51.384;10.316;2022-11-20T07:36:38;-5.00;99.90
21419;DHT22;10870;51.384;10.316;2022-11-20T07:38:40;-5.00;99.90
21419;DHT22;10870;51.384;10.316;2022-11-20T07:40:40;-4.90;99.90
21419;DHT22;10870;51.384;10.316;2022-11-20T07:42:49;-4.80;99.90
21419;DHT22;10870;51.384;10.316;2022-11-20T07:44:50;-4.70;99.90
21419;DHT22;10870;51.384;10.316;2022-11-20T07:46:51;-4.70;99.90
21419;DHT22;10870;51.384;10.316;2022-11-20T07:48:52;-4.70;99.90
21419;DHT22;10870;51.384;10.316;2022-11-20T07:50:54;-4.60;99.90
21419;DHT22;10870;51.384;10.316;2022-11-20T07:53:05;-4.60;99.90
21419;DHT22;10870;51.384;10.316;2022-11-20T07:55:07;-4.60;99.90
21419;DHT22;10870;51.384;10.316;2022-11-20T07:57:08;-4.50;99.90
21419;DHT22;10870;51.384;10.316;2022-11-20T07:59:09;-4.50;99.90
21419;DHT22;10870;51.384;10.316;2022-11-20T08:01:12;-4.40;99.90
21419;DHT22;10870;51.384;10.316;2022-11-20T08:03:13;-4.40;99.90
21419;DHT22;10870;51.384;10.316;2022-11-20T08:05:14;-4.30;99.90
21419;DHT22;10870;51.384;10.316;2022-11-20T08:07:15;-4.30;99.90
21419;DHT22;10870;51.384;10.316;2022-11-20T08:09:16;-4.20;99.90
21419;DHT22;10870;51.384;10.316;2022-11-20T08:11:17;-4.10;99.90
21419;DHT22;10870;51.384;10.316;2022-11-20T08:13:37;-4.10;99.90
21419;DHT22;10870;51.384;10.316;2022-11-20T08:15:56;-4.00;99.90
21419;DHT22;10870;51.384;10.316;2022-11-20T08:18:06;-4.00;99.90
21419;DHT22;10870;51.384;10.316;2022-11-20T08:20:07;-4.00;99.90
21419;DHT22;10870;51.384;10.316;2022-11-20T08:22:09;-3.90;99.90
21419;DHT22;10870;51.384;10.316;2022-11-20T08:24:10;-3.90;99.90
21419;DHT22;10870;51.384;10.316;2022-11-20T08:26:11;-3.90;99.90
21419;DHT22;10870;51.384;10.316;2022-11-20T08:28:12;-3.80;99.90
21419;DHT22;10870;51.384;10.316;2022-11-20T08:30:14;-3.80;99.90
21419;DHT22;10870;51.384;10.316;2022-11-20T08:32:15;-3.70;99.90
21419;DHT22;10870;51.384;10.316;2022-11-20T08:34:16;-3.70;99.90
21419;DHT22;10870;51.384;10.316;2022-11-20T08:36:17;-3.70;99.90
21419;DHT22;10870;51.384;10.316;2022-11-20T08:38:18;-3.70;99.90
21419;DHT22;10870;51.384;10.316;2022-11-20T08:40:19;-3.60;99.90
21419;DHT22;10870;51.384;10.316;2022-11-20T08:42:20;-3.60;99.90
21419;DHT22;10870;51.384;10.316;2022-11-20T08:44:21;-3.50;99.90
21419;DHT22;10870;51.384;10.316;2022-11-20T08:46:26;-3.50;99.90
21419;DHT22;10870;51.384;10.316;2022-11-20T08:48:27;-3.50;99.90
21419;DHT22;10870;51.384;10.316;2022-11-20T08:50:28;-3.50;99.90
21419;DHT22;10870;51.384;10.316;2022-11-20T08:52:32;-3.40;99.90
21419;DHT22;10870;51.384;10.316;2022-11-20T08:54:33;-3.40;99.90
21419;DHT22;10870;51.384;10.316;2022-11-20T08:56:36;-3.40;99.90
21419;DHT22;10870;51.384;10.316;2022-11-20T08:58:41;-3.40;99.90
21419;DHT22;10870;51.384;10.316;2022-11-20T09:00:45;-3.30;99.90
21419;DHT22;10870;51.384;10.316;2022-11-20T09:02:48;-3.30;99.90
21419;DHT22;10870;51.384;10.316;2022-11-20T09:04:49;-3.30;99.90
21419;DHT22;10870;51.384;10.316;2022-11-20T09:06:52;-3.20;99.90
21419;DHT22;10870;51.384;10.316;2022-11-20T09:08:56;-3.20;99.90
21419;DHT22;10870;51.384;10.316;2022-11-20T09:10:58;-3.10;99.90
21419;DHT22;10870;51.384;10.316;2022-11-20T09:13:02;-3.10;99.90
21419;DHT22;10870;51.384;10.316;2022-11-20T09:15:03;-3.00;99.90
21419;DHT22;10870;51.384;10.316;2022-11-20T09:17:04;-3.00;99.90
21419;DHT22;10870;51.384;10.316;2022-11-20T09:19:05;-3.00;99.90
21419;DHT22;10870;51.384;10.316;2022-11-20T09:21:11;-2.90;99.90
21419;DHT22;10870;51.384;10.316;2022-11-20T09:23:12;-2.90;99.90
21419;DHT22;10870;51.384;10.316;2022-11-20T09:25:13;-2.90;99.90
21419;DHT22;10870;51.384;10.316;2022-11-20T09:27:14;-2.80;99.90
21419;DHT22;10870;51.384;10.316;2022-11-20T09:29:17;-2.80;99.90
21419;DHT22;10870;51.384;10.316;2022-11-20T09:31:24;-2.80;99.90
21419;DHT22;10870;51.384;10.316;2022-11-20T09:33:29;-2.80;99.90
21419;DHT22;10870;51.384;10.316;2022-11-20T09:35:29;-2.80;99.90
21419;DHT22;10870;51.384;10.316;2022-11-20T09:37:32;-2.80;99.90
21419;DHT22;10870;51.384;10.316;2022-11-20T09:39:35;-2.70;99.90
21419;DHT22;10870;51.384;10.316;2022-11-20T09:44:14;-2.70;99.90
21419;DHT22;10870;51.384;10.316;2022-11-20T09:46:29;-2.60;99.90
21419;DHT22;10870;51.384;10.316;2022-11-20T09:55:16;-2.60;99.90
21419;DHT22;10870;51.384;10.316;2022-11-20T09:57:21;-2.60;99.90
21419;DHT22;10870;51.384;10.316;2022-11-20T09:59:46;-2.60;99.90
21419;DHT22;10870;51.384;10.316;2022-11-20T10:01:49;-2.60;99.90
21419;DHT22;10870;51.384;10.316;2022-11-20T10:04:22;-2.50;99.90
21419;DHT22;10870;51.384;10.316;2022-11-20T10:07:30;-2.50;99.90
21419;DHT22;10870;51.384;10.316;2022-11-20T10:17:25;-2.50;99.90
21419;DHT22;10870;51.384;10.316;2022-11-20T10:33:41;-2.20;99.90
21419;DHT22;10870;51.384;10.316;2022-11-20T10:38:26;-2.10;99.90
21419;DHT22;10870;51.384;10.316;2022-11-20T10:42:46;-2.10;99.90
21419;DHT22;10870;51.384;10.316;2022-11-20T10:44:52;-2.10;99.90
21419;DHT22;10870;51.384;10.316;2022-11-20T10:47:04;-2.00;99.90
21419;DHT22;10870;51.384;10.316;2022-11-20T10:49:16;-2.00;99.90
21419;DHT22;10870;51.384;10.316;2022-11-20T10:58:24;-1.70;99.90
21419;DHT22;10870;51.384;10.316;2022-11-20T11:00:31;-1.60;99.90
21419;DHT22;10870;51.384;10.316;2022-11-20T11:02:51;-1.60;99.90
21419;DHT22;10870;51.384;10.316;2022-11-20T11:04:54;-1.50;99.90
21419;DHT22;10870;51.384;10.316;2022-11-20T11:07:02;-1.40;99.90
21419;DHT22;10870;51.384;10.316;2022-11-20T11:09:18;-1.30;99.90
21419;DHT22;10870;51.384;10.316;2022-11-20T11:11:24;-1.30;99.90
21419;DHT22;10870;51.384;10.316;2022-11-20T11:13:29;-1.20;99.90
21419;DHT22;10870;51.384;10.316;2022-11-20T11:15:39;-1.10;99.90
21419;DHT22;10870;51.384;10.316;2022-11-20T11:17:46;-1.10;99.90
21419;DHT22;10870;51.384;10.316;2022-11-20T11:20:00;-1.00;99.90
21419;DHT22;10870;51.384;10.316;2022-11-20T11:22:12;-1.00;99.90
21419;DHT22;10870;51.384;10.316;2022-11-20T11:24:31;-0.90;99.90
21419;DHT22;10870;51.384;10.316;2022-11-20T11:26:32;-0.90;99.90
21419;DHT22;10870;51.384;10.316;2022-11-20T11:28:37;-0.90;99.90
21419;DHT22;10870;51.384;10.316;2022-11-20T11:30:45;-0.80;99.90
21419;DHT22;10870;51.384;10.316;2022-11-20T11:32:46;-0.80;99.90
21419;DHT22;10870;51.384;10.316;2022-11-20T11:37:34;-0.60;99.90
21419;DHT22;10870;51.384;10.316;2022-11-20T11:39:41;-0.60;99.90
21419;DHT22;10870;51.384;10.316;2022-11-20T11:41:43;-0.60;99.90
21419;DHT22;10870;51.384;10.316;2022-11-20T11:48:26;-0.50;99.90
21419;DHT22;10870;51.384;10.316;2022-11-20T11:50:29;-0.40;99.90
21419;DHT22;10870;51.384;10.316;2022-11-20T11:56:39;-0.40;99.90
21419;DHT22;10870;51.384;10.316;2022-11-20T11:58:52;-0.30;99.90
21419;DHT22;10870;51.384;10.316;2022-11-20T12:03:30;-0.20;99.90
21419;DHT22;10870;51.384;10.316;2022-11-20T12:05:42;-0.10;99.90
21419;DHT22;10870;51.384;10.316;2022-11-20T12:12:41;0.00;99.90
21419;DHT22;10870;51.384;10.316;2022-11-20T12:14:48;0.00;99.90
21419;DHT22;10870;51.384;10.316;2022-11-20T12:16:54;0.00;99.90
21419;DHT22;10870;51.384;10.316;2022-11-20T12:18:58;0.10;99.90
21419;DHT22;10870;51.384;10.316;2022-11-20T12:23:17;0.20;99.90
21419;DHT22;10870;51.384;10.316;2022-11-20T12:25:28;0.20;99.90
21419;DHT22;10870;51.384;10.316;2022-11-20T12:37:17;0.30;99.90
21419;DHT22;10870;51.384;10.316;2022-11-20T12:41:55;0.40;99.90
21419;DHT22;10870;51.384;10.316;2022-11-20T12:46:50;0.40;99.90
21419;DHT22;10870;51.384;10.316;2022-11-20T13:06:21;0.80;99.90
21419;DHT22;10870;51.384;10.316;2022-11-20T13:08:36;0.90;99.90
21419;DHT22;10870;51.384;10.316;2022-11-20T13:18:10;0.90;99.90
21419;DHT22;10870;51.384;10.316;2022-11-20T13:20:15;1.00;99.90
21419;DHT22;10870;51.384;10.316;2022-11-20T13:22:45;1.00;99.90
21419;DHT22;10870;51.384;10.316;2022-11-20T13:24:51;1.10;99.90
21419;DHT22;10870;51.384;10.316;2022-11-20T16:42:10;1.10;99.90
21419;DHT22;10870;51.384;10.316;2022-11-20T16:44:12;-0.20;99.90
21419;DHT22;10870;51.384;10.316;2022-11-20T16:46:26;-0.20;99.90
21419;DHT22;10870;51.384;10.316;2022-11-20T16:48:33;-0.20;99.90
21419;DHT22;10870;51.384;10.316;2022-11-20T16:51:10;-0.30;99.90
21419;DHT22;10870;51.384;10.316;2022-11-20T16:53:26;-0.20;99.90
21419;DHT22;10870;51.384;10.316;2022-11-20T16:55:27;-0.20;99.90
21419;DHT22;10870;51.384;10.316;2022-11-20T16:57:32;-0.20;99.90
21419;DHT22;10870;51.384;10.316;2022-11-20T16:59:51;-0.10;99.90
21419;DHT22;10870;51.384;10.316;2022-11-20T17:02:01;-0.10;99.90
21419;DHT22;10870;51.384;10.316;2022-11-20T17:04:07;-0.10;99.90
21419;DHT22;10870;51.384;10.316;2022-11-20T17:06:20;-0.10;99.90
21419;DHT22;10870;51.384;10.316;2022-11-20T17:08:27;-0.10;99.90
21419;DHT22;10870;51.384;10.316;2022-11-20T17:10:38;-0.10;99.90
21419;DHT22;10870;51.384;10.316;2022-11-20T17:12:48;-0.10;99.90
21419;DHT22;10870;51.384;10.316;2022-11-20T17:14:50;0.00;99.90
21419;DHT22;10870;51.384;10.316;2022-11-20T17:17:07;-0.10;99.90
21419;DHT22;10870;51.384;10.316;2022-11-20T17:19:14;0.00;99.90
21419;DHT22;10870;51.384;10.316;2022-11-20T17:21:48;0.00;99.90
21419;DHT22;10870;51.384;10.316;2022-11-20T17:23:52;0.00;99.90
21419;DHT22;10870;51.384;10.316;2022-11-20T17:26:10;0.00;99.90
21419;DHT22;10870;51.384;10.316;2022-11-20T17:28:28;0.10;99.90
21419;DHT22;10870;51.384;10.316;2022-11-20T17:30:39;0.10;99.90
21419;DHT22;10870;51.384;10.316;2022-11-20T17:32:55;0.10;99.90
21419;DHT22;10870;51.384;10.316;2022-11-20T17:34:56;0.00;99.90
21419;DHT22;10870;51.384;10.316;2022-11-20T17:37:04;0.10;99.90
21419;DHT22;10870;51.384;10.316;2022-11-20T17:39:06;0.10;99.90
21419;DHT22;10870;51.384;10.316;2022-11-20T17:41:18;0.10;99.90
21419;DHT22;10870;51.384;10.316;2022-11-20T17:43:25;0.10;99.90
21419;DHT22;10870;51.384;10.316;2022-11-20T17:45:29;0.10;99.90
21419;DHT22;10870;51.384;10.316;2022-11-20T17:47:40;0.10;99.90
21419;DHT22;10870;51.384;10.316;2022-11-20T17:52:02;0.10;99.90
21419;DHT22;10870;51.384;10.316;2022-11-20T17:54:12;0.10;99.90
21419;DHT22;10870;51.384;10.316;2022-11-20T17:56:14;0.20;99.90
21419;DHT22;10870;51.384;10.316;2022-11-20T17:58:36;0.20;99.90
21419;DHT22;10870;51.384;10.316;2022-11-20T18:00:41;0.20;99.90
21419;DHT22;10870;51.384;10.316;2022-11-20T18:03:02;0.20;99.90
21419;DHT22;10870;51.384;10.316;2022-11-20T18:05:07;0.20;99.90
21419;DHT22;10870;51.384;10.316;2022-11-20T18:07:14;0.20;99.90
21419;DHT22;10870;51.384;10.316;2022-11-20T18:09:16;0.20;99.90
21419;DHT22;10870;51.384;10.316;2022-11-20T18:11:29;0.20;99.90
21419;DHT22;10870;51.384;10.316;2022-11-20T18:13:38;0.20;99.90